sensor_id;sensor_type;location;lat;lon;timestamp;P1;durP1;ratioP1;P2;durP2;ratioP2
37411;SDS011;23278;52.110;6.050;2022-08-01T00:00:34;3.88;;;3.25;;
37411;SDS011;23278;52.110;6.050;2022-08-01T00:03:01;3.05;;;2.50;;
37411;SDS011;23278;52.110;6.050;2022-08-01T00:05:27;2.40;;;2.20;;
37411;SDS011;23278;52.110;6.050;2022-08-01T00:07:52;4.25;;;2.85;;
37411;SDS011;23278;52.110;6.050;2022-08-01T00:10:18;4.20;;;2.47;;
37411;SDS011;23278;52.110;6.050;2022-08-01T00:12:45;3.00;;;2.20;;
37411;SDS011;23278;52.110;6.050;2022-08-01T00:15:12;5.70;;;2.72;;
37411;SDS011;23278;52.110;6.050;2022-08-01T00:17:39;2.80;;;2.10;;
37411;SDS011;23278;52.110;6.050;2022-08-01T00:20:07;4.68;;;2.33;;
37411;SDS011;23278;52.110;6.050;2022-08-01T00:22:34;3.88;;;2.60;;
37411;SDS011;23278;52.110;6.050;2022-08-01T00:25:00;4.35;;;2.28;;
37411;SDS011;23278;52.110;6.050;2022-08-01T00:27:27;4.13;;;2.85;;
37411;SDS011;23278;52.110;6.050;2022-08-01T00:29:53;3.90;;;2.88;;
37411;SDS011;23278;52.110;6.050;2022-08-01T00:32:19;2.92;;;2.13;;
37411;SDS011;23278;52.110;6.050;2022-08-01T00:34:45;3.72;;;2.10;;
37411;SDS011;23278;52.110;6.050;2022-08-01T00:37:11;3.13;;;2.13;;
37411;SDS011;23278;52.110;6.050;2022-08-01T00:39:36;2.40;;;2.10;;
37411;SDS011;23278;52.110;6.050;2022-08-01T00:42:06;3.28;;;2.55;;
37411;SDS011;23278;52.110;6.050;2022-08-01T00:44:33;2.88;;;2.30;;
37411;SDS011;23278;52.110;6.050;2022-08-01T00:46:59;2.75;;;2.35;;
37411;SDS011;23278;52.110;6.050;2022-08-01T00:49:25;4.03;;;2.70;;
37411;SDS011;23278;52.110;6.050;2022-08-01T00:51:53;4.13;;;3.10;;
37411;SDS011;23278;52.110;6.050;2022-08-01T00:54:19;3.05;;;2.67;;
37411;SDS011;23278;52.110;6.050;2022-08-01T00:56:45;2.35;;;2.03;;
37411;SDS011;23278;52.110;6.050;2022-08-01T00:59:11;2.40;;;2.08;;
37411;SDS011;23278;52.110;6.050;2022-08-01T01:01:39;3.33;;;2.20;;
37411;SDS011;23278;52.110;6.050;2022-08-01T01:04:05;2.05;;;1.65;;
37411;SDS011;23278;52.110;6.050;2022-08-01T01:12:20;2.85;;;1.98;;
37411;SDS011;23278;52.110;6.050;2022-08-01T01:14:55;3.10;;;2.42;;
37411;SDS011;23278;52.110;6.050;2022-08-01T01:20:12;6.25;;;2.83;;
37411;SDS011;23278;52.110;6.050;2022-08-01T01:23:15;3.88;;;2.28;;
37411;SDS011;23278;52.110;6.050;2022-08-01T01:29:05;3.25;;;2.50;;
37411;SDS011;23278;52.110;6.050;2022-08-01T01:31:53;2.83;;;2.00;;
37411;SDS011;23278;52.110;6.050;2022-08-01T01:34:29;3.50;;;2.83;;
37411;SDS011;23278;52.110;6.050;2022-08-01T01:36:57;3.72;;;1.80;;
37411;SDS011;23278;52.110;6.050;2022-08-01T01:39:26;3.25;;;2.28;;
37411;SDS011;23278;52.110;6.050;2022-08-01T01:41:54;3.55;;;2.15;;
37411;SDS011;23278;52.110;6.050;2022-08-01T01:44:21;3.05;;;2.40;;
37411;SDS011;23278;52.110;6.050;2022-08-01T01:46:47;4.75;;;3.00;;
37411;SDS011;23278;52.110;6.050;2022-08-01T01:49:15;2.95;;;2.65;;
37411;SDS011;23278;52.110;6.050;2022-08-01T01:51:44;4.93;;;3.88;;
37411;SDS011;23278;52.110;6.050;2022-08-01T01:54:12;4.57;;;3.05;;
37411;SDS011;23278;52.110;6.050;2022-08-01T01:56:38;3.85;;;2.53;;
37411;SDS011;23278;52.110;6.050;2022-08-01T01:59:15;4.35;;;3.38;;
37411;SDS011;23278;52.110;6.050;2022-08-01T02:01:49;3.92;;;3.05;;
37411;SDS011;23278;52.110;6.050;2022-08-01T02:04:18;5.95;;;4.70;;
37411;SDS011;23278;52.110;6.050;2022-08-01T02:06:46;5.78;;;4.50;;
37411;SDS011;23278;52.110;6.050;2022-08-01T02:09:16;3.33;;;2.58;;
37411;SDS011;23278;52.110;6.050;2022-08-01T02:11:45;5.47;;;3.58;;
37411;SDS011;23278;52.110;6.050;2022-08-01T02:14:12;4.32;;;3.20;;
37411;SDS011;23278;52.110;6.050;2022-08-01T02:16:40;3.95;;;3.33;;
37411;SDS011;23278;52.110;6.050;2022-08-01T02:19:09;4.60;;;3.75;;
37411;SDS011;23278;52.110;6.050;2022-08-01T02:21:40;5.43;;;4.30;;
37411;SDS011;23278;52.110;6.050;2022-08-01T02:24:24;4.55;;;3.83;;
37411;SDS011;23278;52.110;6.050;2022-08-01T02:27:00;3.95;;;3.22;;
37411;SDS011;23278;52.110;6.050;2022-08-01T02:30:15;4.85;;;3.90;;
37411;SDS011;23278;52.110;6.050;2022-08-01T02:32:25;3.15;;;2.60;;
37411;SDS011;23278;52.110;6.050;2022-08-01T02:34:55;3.30;;;3.00;;
37411;SDS011;23278;52.110;6.050;2022-08-01T02:37:24;3.65;;;2.50;;
37411;SDS011;23278;52.110;6.050;2022-08-01T02:39:54;3.35;;;1.95;;
37411;SDS011;23278;52.110;6.050;2022-08-01T02:42:21;3.30;;;2.38;;
37411;SDS011;23278;52.110;6.050;2022-08-01T02:44:49;2.47;;;1.83;;
37411;SDS011;23278;52.110;6.050;2022-08-01T02:47:17;2.08;;;1.70;;
37411;SDS011;23278;52.110;6.050;2022-08-01T02:49:47;2.45;;;1.92;;
37411;SDS011;23278;52.110;6.050;2022-08-01T02:52:14;2.45;;;1.80;;
37411;SDS011;23278;52.110;6.050;2022-08-01T02:54:43;2.25;;;1.80;;
37411;SDS011;23278;52.110;6.050;2022-08-01T02:57:10;2.00;;;1.77;;
37411;SDS011;23278;52.110;6.050;2022-08-01T02:59:39;2.40;;;2.00;;
37411;SDS011;23278;52.110;6.050;2022-08-01T03:02:06;3.55;;;1.40;;
37411;SDS011;23278;52.110;6.050;2022-08-01T03:04:34;1.75;;;1.15;;
37411;SDS011;23278;52.110;6.050;2022-08-01T03:07:02;1.30;;;1.20;;
37411;SDS011;23278;52.110;6.050;2022-08-01T03:09:30;1.85;;;1.08;;
37411;SDS011;23278;52.110;6.050;2022-08-01T03:12:00;1.33;;;1.15;;
37411;SDS011;23278;52.110;6.050;2022-08-01T03:14:27;1.38;;;1.00;;
37411;SDS011;23278;52.110;6.050;2022-08-01T03:16:55;2.05;;;1.00;;
37411;SDS011;23278;52.110;6.050;2022-08-01T03:19:23;1.42;;;1.00;;
37411;SDS011;23278;52.110;6.050;2022-08-01T03:21:51;1.73;;;1.33;;
37411;SDS011;23278;52.110;6.050;2022-08-01T03:24:18;1.40;;;1.08;;
37411;SDS011;23278;52.110;6.050;2022-08-01T03:26:44;1.90;;;1.15;;
37411;SDS011;23278;52.110;6.050;2022-08-01T03:29:14;1.52;;;1.25;;
37411;SDS011;23278;52.110;6.050;2022-08-01T03:31:43;1.60;;;1.10;;
37411;SDS011;23278;52.110;6.050;2022-08-01T03:34:10;1.23;;;1.05;;
37411;SDS011;23278;52.110;6.050;2022-08-01T03:37:19;1.65;;;1.00;;
37411;SDS011;23278;52.110;6.050;2022-08-01T03:39:34;2.88;;;1.42;;
37411;SDS011;23278;52.110;6.050;2022-08-01T03:42:07;2.88;;;1.65;;
37411;SDS011;23278;52.110;6.050;2022-08-01T03:44:39;1.63;;;1.13;;
37411;SDS011;23278;52.110;6.050;2022-08-01T03:47:09;1.75;;;1.15;;
37411;SDS011;23278;52.110;6.050;2022-08-01T03:49:41;1.45;;;1.00;;
37411;SDS011;23278;52.110;6.050;2022-08-01T03:52:09;1.00;;;0.80;;
37411;SDS011;23278;52.110;6.050;2022-08-01T03:54:40;1.42;;;1.13;;
37411;SDS011;23278;52.110;6.050;2022-08-01T03:57:11;1.40;;;1.13;;
37411;SDS011;23278;52.110;6.050;2022-08-01T03:59:38;1.67;;;1.17;;
37411;SDS011;23278;52.110;6.050;2022-08-01T04:02:06;1.30;;;0.80;;
37411;SDS011;23278;52.110;6.050;2022-08-01T04:04:33;2.03;;;1.23;;
37411;SDS011;23278;52.110;6.050;2022-08-01T04:06:59;1.83;;;1.10;;
37411;SDS011;23278;52.110;6.050;2022-08-01T04:09:31;1.63;;;0.98;;
37411;SDS011;23278;52.110;6.050;2022-08-01T04:11:58;1.48;;;1.02;;
37411;SDS011;23278;52.110;6.050;2022-08-01T04:14:26;2.78;;;1.50;;
37411;SDS011;23278;52.110;6.050;2022-08-01T04:16:53;2.20;;;1.10;;
37411;SDS011;23278;52.110;6.050;2022-08-01T04:19:20;1.67;;;1.30;;
37411;SDS011;23278;52.110;6.050;2022-08-01T04:21:45;1.63;;;1.20;;
37411;SDS011;23278;52.110;6.050;2022-08-01T04:24:14;2.85;;;1.73;;
37411;SDS011;23278;52.110;6.050;2022-08-01T04:26:43;1.63;;;1.23;;
37411;SDS011;23278;52.110;6.050;2022-08-01T04:29:10;2.78;;;1.98;;
37411;SDS011;23278;52.110;6.050;2022-08-01T04:31:39;2.05;;;1.48;;
37411;SDS011;23278;52.110;6.050;2022-08-01T04:34:09;2.08;;;1.60;;
37411;SDS011;23278;52.110;6.050;2022-08-01T04:36:39;2.40;;;1.50;;
37411;SDS011;23278;52.110;6.050;2022-08-01T04:39:09;2.67;;;1.30;;
37411;SDS011;23278;52.110;6.050;2022-08-01T04:41:36;1.88;;;1.50;;
37411;SDS011;23278;52.110;6.050;2022-08-01T04:44:04;1.80;;;1.33;;
37411;SDS011;23278;52.110;6.050;2022-08-01T04:46:30;1.33;;;1.05;;
37411;SDS011;23278;52.110;6.050;2022-08-01T04:48:58;1.58;;;0.90;;
37411;SDS011;23278;52.110;6.050;2022-08-01T04:51:25;1.95;;;0.90;;
37411;SDS011;23278;52.110;6.050;2022-08-01T04:53:51;2.08;;;1.10;;
37411;SDS011;23278;52.110;6.050;2022-08-01T04:56:20;1.50;;;1.00;;
37411;SDS011;23278;52.110;6.050;2022-08-01T04:58:46;1.55;;;1.00;;
37411;SDS011;23278;52.110;6.050;2022-08-01T05:01:12;1.30;;;1.00;;
37411;SDS011;23278;52.110;6.050;2022-08-01T05:03:38;2.38;;;1.10;;
37411;SDS011;23278;52.110;6.050;2022-08-01T05:06:04;1.58;;;0.70;;
37411;SDS011;23278;52.110;6.050;2022-08-01T05:08:31;1.65;;;1.00;;
37411;SDS011;23278;52.110;6.050;2022-08-01T05:10:56;1.35;;;0.90;;
37411;SDS011;23278;52.110;6.050;2022-08-01T05:13:22;9.00;;;2.05;;
37411;SDS011;23278;52.110;6.050;2022-08-01T05:15:48;1.25;;;1.00;;
37411;SDS011;23278;52.110;6.050;2022-08-01T05:18:14;1.73;;;1.23;;
37411;SDS011;23278;52.110;6.050;2022-08-01T05:20:41;2.25;;;1.00;;
37411;SDS011;23278;52.110;6.050;2022-08-01T05:23:07;1.50;;;0.77;;
37411;SDS011;23278;52.110;6.050;2022-08-01T05:25:33;2.03;;;1.30;;
37411;SDS011;23278;52.110;6.050;2022-08-01T05:27:59;1.13;;;0.68;;
37411;SDS011;23278;52.110;6.050;2022-08-01T05:30:25;0.95;;;0.60;;
37411;SDS011;23278;52.110;6.050;2022-08-01T05:32:51;0.88;;;0.60;;
37411;SDS011;23278;52.110;6.050;2022-08-01T05:35:17;0.63;;;0.40;;
37411;SDS011;23278;52.110;6.050;2022-08-01T05:37:42;0.50;;;0.30;;
37411;SDS011;23278;52.110;6.050;2022-08-01T05:40:08;0.93;;;0.40;;
37411;SDS011;23278;52.110;6.050;2022-08-01T05:42:34;1.25;;;0.63;;
37411;SDS011;23278;52.110;6.050;2022-08-01T05:45:01;0.80;;;0.50;;
37411;SDS011;23278;52.110;6.050;2022-08-01T05:47:26;0.60;;;0.40;;
37411;SDS011;23278;52.110;6.050;2022-08-01T05:49:52;0.50;;;0.50;;
37411;SDS011;23278;52.110;6.050;2022-08-01T05:52:18;1.42;;;0.60;;
37411;SDS011;23278;52.110;6.050;2022-08-01T05:54:44;0.30;;;0.30;;
37411;SDS011;23278;52.110;6.050;2022-08-01T05:57:10;0.75;;;0.50;;
37411;SDS011;23278;52.110;6.050;2022-08-01T05:59:36;2.22;;;0.40;;
37411;SDS011;23278;52.110;6.050;2022-08-01T06:02:02;0.50;;;0.40;;
37411;SDS011;23278;52.110;6.050;2022-08-01T06:04:28;0.50;;;0.50;;
37411;SDS011;23278;52.110;6.050;2022-08-01T06:06:54;0.75;;;0.40;;
37411;SDS011;23278;52.110;6.050;2022-08-01T06:09:19;0.65;;;0.50;;
37411;SDS011;23278;52.110;6.050;2022-08-01T06:11:45;1.00;;;0.40;;
37411;SDS011;23278;52.110;6.050;2022-08-01T06:14:11;0.70;;;0.60;;
37411;SDS011;23278;52.110;6.050;2022-08-01T06:16:37;0.90;;;0.50;;
37411;SDS011;23278;52.110;6.050;2022-08-01T06:19:03;3.95;;;0.65;;
37411;SDS011;23278;52.110;6.050;2022-08-01T06:21:29;1.35;;;0.52;;
37411;SDS011;23278;52.110;6.050;2022-08-01T06:23:55;0.80;;;0.60;;
37411;SDS011;23278;52.110;6.050;2022-08-01T06:26:20;0.55;;;0.40;;
37411;SDS011;23278;52.110;6.050;2022-08-01T06:28:46;0.65;;;0.50;;
37411;SDS011;23278;52.110;6.050;2022-08-01T06:31:12;1.45;;;0.60;;
37411;SDS011;23278;52.110;6.050;2022-08-01T06:33:39;1.02;;;0.60;;
37411;SDS011;23278;52.110;6.050;2022-08-01T06:36:05;2.75;;;0.68;;
37411;SDS011;23278;52.110;6.050;2022-08-01T06:38:31;0.60;;;0.47;;
37411;SDS011;23278;52.110;6.050;2022-08-01T06:40:57;0.60;;;0.50;;
37411;SDS011;23278;52.110;6.050;2022-08-01T06:43:23;1.13;;;0.60;;
37411;SDS011;23278;52.110;6.050;2022-08-01T06:45:49;1.02;;;0.60;;
37411;SDS011;23278;52.110;6.050;2022-08-01T06:48:15;0.90;;;0.60;;
37411;SDS011;23278;52.110;6.050;2022-08-01T06:50:41;1.45;;;0.55;;
37411;SDS011;23278;52.110;6.050;2022-08-01T06:53:07;0.95;;;0.50;;
37411;SDS011;23278;52.110;6.050;2022-08-01T06:55:33;0.82;;;0.60;;
37411;SDS011;23278;52.110;6.050;2022-08-01T06:57:59;2.00;;;0.60;;
37411;SDS011;23278;52.110;6.050;2022-08-01T07:00:25;1.42;;;0.60;;
37411;SDS011;23278;52.110;6.050;2022-08-01T07:02:52;1.98;;;0.95;;
37411;SDS011;23278;52.110;6.050;2022-08-01T07:05:20;0.70;;;0.60;;
37411;SDS011;23278;52.110;6.050;2022-08-01T07:07:46;1.77;;;0.63;;
37411;SDS011;23278;52.110;6.050;2022-08-01T07:10:12;1.08;;;0.70;;
37411;SDS011;23278;52.110;6.050;2022-08-01T07:12:38;1.42;;;0.70;;
37411;SDS011;23278;52.110;6.050;2022-08-01T07:15:06;3.08;;;1.38;;
37411;SDS011;23278;52.110;6.050;2022-08-01T07:17:40;1.25;;;0.70;;
37411;SDS011;23278;52.110;6.050;2022-08-01T07:20:08;1.55;;;0.60;;
37411;SDS011;23278;52.110;6.050;2022-08-01T07:22:36;1.45;;;0.40;;
37411;SDS011;23278;52.110;6.050;2022-08-01T07:25:03;1.10;;;0.60;;
37411;SDS011;23278;52.110;6.050;2022-08-01T07:27:29;1.88;;;0.63;;
37411;SDS011;23278;52.110;6.050;2022-08-01T07:29:55;1.42;;;0.55;;
37411;SDS011;23278;52.110;6.050;2022-08-01T07:32:21;1.15;;;0.60;;
37411;SDS011;23278;52.110;6.050;2022-08-01T07:34:48;3.95;;;0.82;;
37411;SDS011;23278;52.110;6.050;2022-08-01T07:37:14;2.17;;;0.70;;
37411;SDS011;23278;52.110;6.050;2022-08-01T07:39:40;1.85;;;0.65;;
37411;SDS011;23278;52.110;6.050;2022-08-01T07:42:06;2.30;;;0.55;;
37411;SDS011;23278;52.110;6.050;2022-08-01T07:44:32;1.95;;;0.57;;
37411;SDS011;23278;52.110;6.050;2022-08-01T07:46:58;1.63;;;0.60;;
37411;SDS011;23278;52.110;6.050;2022-08-01T07:49:23;0.70;;;0.50;;
37411;SDS011;23278;52.110;6.050;2022-08-01T07:51:50;1.00;;;0.50;;
37411;SDS011;23278;52.110;6.050;2022-08-01T07:54:15;1.85;;;0.70;;
37411;SDS011;23278;52.110;6.050;2022-08-01T07:56:41;2.45;;;1.15;;
37411;SDS011;23278;52.110;6.050;2022-08-01T07:59:07;2.38;;;0.60;;
37411;SDS011;23278;52.110;6.050;2022-08-01T08:01:33;2.22;;;0.70;;
37411;SDS011;23278;52.110;6.050;2022-08-01T08:03:59;2.08;;;0.65;;
37411;SDS011;23278;52.110;6.050;2022-08-01T08:06:25;0.93;;;0.50;;
37411;SDS011;23278;52.110;6.050;2022-08-01T08:08:51;2.03;;;0.60;;
37411;SDS011;23278;52.110;6.050;2022-08-01T08:11:19;2.00;;;0.60;;
37411;SDS011;23278;52.110;6.050;2022-08-01T08:13:45;1.58;;;0.50;;
37411;SDS011;23278;52.110;6.050;2022-08-01T08:16:10;1.17;;;0.40;;
37411;SDS011;23278;52.110;6.050;2022-08-01T08:18:36;3.15;;;0.75;;
37411;SDS011;23278;52.110;6.050;2022-08-01T08:21:03;0.90;;;0.40;;
37411;SDS011;23278;52.110;6.050;2022-08-01T08:23:29;1.75;;;0.52;;
37411;SDS011;23278;52.110;6.050;2022-08-01T08:26:13;1.92;;;0.47;;
37411;SDS011;23278;52.110;6.050;2022-08-01T08:28:39;1.40;;;0.45;;
37411;SDS011;23278;52.110;6.050;2022-08-01T08:31:05;3.80;;;0.60;;
37411;SDS011;23278;52.110;6.050;2022-08-01T08:33:31;1.92;;;0.60;;
37411;SDS011;23278;52.110;6.050;2022-08-01T08:35:57;2.05;;;0.85;;
37411;SDS011;23278;52.110;6.050;2022-08-01T08:38:23;1.45;;;0.68;;
37411;SDS011;23278;52.110;6.050;2022-08-01T08:40:52;1.27;;;0.60;;
37411;SDS011;23278;52.110;6.050;2022-08-01T08:43:18;1.55;;;0.55;;
37411;SDS011;23278;52.110;6.050;2022-08-01T08:45:44;2.22;;;0.68;;
37411;SDS011;23278;52.110;6.050;2022-08-01T08:48:12;1.60;;;0.70;;
37411;SDS011;23278;52.110;6.050;2022-08-01T08:50:38;1.90;;;0.65;;
37411;SDS011;23278;52.110;6.050;2022-08-01T08:53:06;1.40;;;0.60;;
37411;SDS011;23278;52.110;6.050;2022-08-01T08:55:35;1.10;;;0.50;;
37411;SDS011;23278;52.110;6.050;2022-08-01T08:58:11;1.65;;;0.60;;
37411;SDS011;23278;52.110;6.050;2022-08-01T09:00:40;2.08;;;0.60;;
37411;SDS011;23278;52.110;6.050;2022-08-01T09:03:06;2.90;;;1.00;;
37411;SDS011;23278;52.110;6.050;2022-08-01T09:05:32;1.80;;;0.70;;
37411;SDS011;23278;52.110;6.050;2022-08-01T09:07:59;1.63;;;0.60;;
37411;SDS011;23278;52.110;6.050;2022-08-01T09:10:25;3.28;;;0.85;;
37411;SDS011;23278;52.110;6.050;2022-08-01T09:13:04;3.17;;;0.88;;
37411;SDS011;23278;52.110;6.050;2022-08-01T09:15:47;2.22;;;0.70;;
37411;SDS011;23278;52.110;6.050;2022-08-01T09:21:09;4.45;;;1.48;;
37411;SDS011;23278;52.110;6.050;2022-08-01T09:23:40;2.35;;;1.00;;
37411;SDS011;23278;52.110;6.050;2022-08-01T09:26:14;7.25;;;1.02;;
37411;SDS011;23278;52.110;6.050;2022-08-01T09:28:42;3.88;;;1.00;;
37411;SDS011;23278;52.110;6.050;2022-08-01T09:31:18;5.00;;;1.42;;
37411;SDS011;23278;52.110;6.050;2022-08-01T09:33:54;3.15;;;1.25;;
37411;SDS011;23278;52.110;6.050;2022-08-01T09:36:21;2.78;;;0.95;;
37411;SDS011;23278;52.110;6.050;2022-08-01T09:38:49;4.07;;;0.93;;
37411;SDS011;23278;52.110;6.050;2022-08-01T09:41:16;5.57;;;1.30;;
37411;SDS011;23278;52.110;6.050;2022-08-01T09:43:49;2.70;;;0.80;;
37411;SDS011;23278;52.110;6.050;2022-08-01T09:46:15;4.32;;;0.80;;
37411;SDS011;23278;52.110;6.050;2022-08-01T09:48:54;5.93;;;1.35;;
37411;SDS011;23278;52.110;6.050;2022-08-01T09:51:28;5.90;;;0.85;;
37411;SDS011;23278;52.110;6.050;2022-08-01T09:54:02;3.80;;;0.70;;
37411;SDS011;23278;52.110;6.050;2022-08-01T09:56:40;4.78;;;1.15;;
37411;SDS011;23278;52.110;6.050;2022-08-01T09:59:08;10.05;;;1.63;;
37411;SDS011;23278;52.110;6.050;2022-08-01T10:01:42;1.38;;;0.60;;
37411;SDS011;23278;52.110;6.050;2022-08-01T10:04:11;5.88;;;1.08;;
37411;SDS011;23278;52.110;6.050;2022-08-01T10:06:40;5.03;;;0.70;;
37411;SDS011;23278;52.110;6.050;2022-08-01T10:09:09;3.30;;;0.60;;
37411;SDS011;23278;52.110;6.050;2022-08-01T10:11:40;4.55;;;1.00;;
37411;SDS011;23278;52.110;6.050;2022-08-01T10:14:07;2.20;;;0.73;;
37411;SDS011;23278;52.110;6.050;2022-08-01T10:16:35;4.25;;;1.17;;
37411;SDS011;23278;52.110;6.050;2022-08-01T10:19:02;2.97;;;0.88;;
37411;SDS011;23278;52.110;6.050;2022-08-01T10:21:32;4.78;;;0.95;;
37411;SDS011;23278;52.110;6.050;2022-08-01T10:23:59;3.17;;;0.68;;
37411;SDS011;23278;52.110;6.050;2022-08-01T10:26:29;2.65;;;0.88;;
37411;SDS011;23278;52.110;6.050;2022-08-01T10:28:57;7.72;;;1.17;;
37411;SDS011;23278;52.110;6.050;2022-08-01T10:31:23;3.38;;;0.88;;
37411;SDS011;23278;52.110;6.050;2022-08-01T10:33:50;3.63;;;0.80;;
37411;SDS011;23278;52.110;6.050;2022-08-01T10:36:18;2.45;;;0.70;;
37411;SDS011;23278;52.110;6.050;2022-08-01T10:38:45;1.77;;;0.57;;
37411;SDS011;23278;52.110;6.050;2022-08-01T10:41:12;2.60;;;0.60;;
37411;SDS011;23278;52.110;6.050;2022-08-01T10:43:40;3.42;;;1.15;;
37411;SDS011;23278;52.110;6.050;2022-08-01T10:46:07;5.15;;;0.82;;
37411;SDS011;23278;52.110;6.050;2022-08-01T10:48:38;2.58;;;0.40;;
37411;SDS011;23278;52.110;6.050;2022-08-01T10:51:05;1.75;;;0.50;;
37411;SDS011;23278;52.110;6.050;2022-08-01T10:53:33;3.28;;;0.60;;
37411;SDS011;23278;52.110;6.050;2022-08-01T10:55:59;4.28;;;1.05;;
37411;SDS011;23278;52.110;6.050;2022-08-01T10:58:30;2.60;;;0.60;;
37411;SDS011;23278;52.110;6.050;2022-08-01T11:04:06;2.28;;;0.60;;
37411;SDS011;23278;52.110;6.050;2022-08-01T11:09:28;3.80;;;0.50;;
37411;SDS011;23278;52.110;6.050;2022-08-01T11:14:22;3.22;;;0.90;;
37411;SDS011;23278;52.110;6.050;2022-08-01T11:16:48;2.55;;;0.75;;
37411;SDS011;23278;52.110;6.050;2022-08-01T11:19:14;1.52;;;0.30;;
37411;SDS011;23278;52.110;6.050;2022-08-01T11:25:00;1.85;;;0.40;;
37411;SDS011;23278;52.110;6.050;2022-08-01T11:27:16;2.28;;;0.75;;
37411;SDS011;23278;52.110;6.050;2022-08-01T11:29:42;1.27;;;0.40;;
37411;SDS011;23278;52.110;6.050;2022-08-01T11:32:23;1.25;;;0.50;;
37411;SDS011;23278;52.110;6.050;2022-08-01T11:34:52;2.33;;;0.43;;
37411;SDS011;23278;52.110;6.050;2022-08-01T11:37:25;3.92;;;0.85;;
37411;SDS011;23278;52.110;6.050;2022-08-01T11:42:40;2.30;;;0.50;;
37411;SDS011;23278;52.110;6.050;2022-08-01T11:45:06;4.07;;;1.00;;
37411;SDS011;23278;52.110;6.050;2022-08-01T11:47:53;1.77;;;0.50;;
37411;SDS011;23278;52.110;6.050;2022-08-01T11:53:00;3.38;;;0.43;;
37411;SDS011;23278;52.110;6.050;2022-08-01T11:55:28;2.90;;;0.47;;
37411;SDS011;23278;52.110;6.050;2022-08-01T11:57:59;2.40;;;0.57;;
37411;SDS011;23278;52.110;6.050;2022-08-01T12:00:29;2.40;;;0.50;;
37411;SDS011;23278;52.110;6.050;2022-08-01T12:05:26;1.92;;;0.45;;
37411;SDS011;23278;52.110;6.050;2022-08-01T12:07:54;1.73;;;0.60;;
37411;SDS011;23278;52.110;6.050;2022-08-01T12:10:24;2.47;;;0.50;;
37411;SDS011;23278;52.110;6.050;2022-08-01T12:12:52;2.58;;;0.50;;
37411;SDS011;23278;52.110;6.050;2022-08-01T12:15:20;3.38;;;0.57;;
37411;SDS011;23278;52.110;6.050;2022-08-01T12:17:49;1.90;;;0.50;;
37411;SDS011;23278;52.110;6.050;2022-08-01T12:20:21;2.20;;;0.50;;
37411;SDS011;23278;52.110;6.050;2022-08-01T12:22:52;2.45;;;0.50;;
37411;SDS011;23278;52.110;6.050;2022-08-01T12:25:22;3.08;;;0.68;;
37411;SDS011;23278;52.110;6.050;2022-08-01T12:27:48;2.42;;;0.45;;
37411;SDS011;23278;52.110;6.050;2022-08-01T12:30:16;1.92;;;0.50;;
37411;SDS011;23278;52.110;6.050;2022-08-01T12:32:50;1.65;;;0.50;;
37411;SDS011;23278;52.110;6.050;2022-08-01T12:35:18;2.38;;;0.65;;
37411;SDS011;23278;52.110;6.050;2022-08-01T12:37:49;3.58;;;0.77;;
37411;SDS011;23278;52.110;6.050;2022-08-01T12:42:54;3.20;;;1.05;;
37411;SDS011;23278;52.110;6.050;2022-08-01T12:45:24;4.53;;;0.77;;
37411;SDS011;23278;52.110;6.050;2022-08-01T12:47:52;5.38;;;0.70;;
37411;SDS011;23278;52.110;6.050;2022-08-01T12:50:20;1.80;;;0.60;;
37411;SDS011;23278;52.110;6.050;2022-08-01T12:52:49;1.88;;;0.50;;
37411;SDS011;23278;52.110;6.050;2022-08-01T12:57:44;5.75;;;0.88;;
37411;SDS011;23278;52.110;6.050;2022-08-01T13:02:47;4.63;;;0.75;;
37411;SDS011;23278;52.110;6.050;2022-08-01T13:05:15;1.80;;;0.40;;
37411;SDS011;23278;52.110;6.050;2022-08-01T13:07:43;1.85;;;0.65;;
37411;SDS011;23278;52.110;6.050;2022-08-01T13:10:26;3.20;;;1.17;;
37411;SDS011;23278;52.110;6.050;2022-08-01T13:12:54;3.47;;;0.85;;
37411;SDS011;23278;52.110;6.050;2022-08-01T13:15:23;7.90;;;0.70;;
37411;SDS011;23278;52.110;6.050;2022-08-01T13:17:52;2.80;;;0.45;;
37411;SDS011;23278;52.110;6.050;2022-08-01T13:20:32;4.95;;;0.93;;
37411;SDS011;23278;52.110;6.050;2022-08-01T13:23:15;1.95;;;0.60;;
37411;SDS011;23278;52.110;6.050;2022-08-01T13:25:46;2.78;;;0.73;;
37411;SDS011;23278;52.110;6.050;2022-08-01T13:28:22;3.17;;;1.10;;
37411;SDS011;23278;52.110;6.050;2022-08-01T13:33:25;5.78;;;0.85;;
37411;SDS011;23278;52.110;6.050;2022-08-01T13:35:53;4.50;;;1.15;;
37411;SDS011;23278;52.110;6.050;2022-08-01T13:38:20;2.50;;;0.50;;
37411;SDS011;23278;52.110;6.050;2022-08-01T13:41:07;4.80;;;1.05;;
37411;SDS011;23278;52.110;6.050;2022-08-01T13:43:33;1.83;;;0.63;;
37411;SDS011;23278;52.110;6.050;2022-08-01T13:46:00;2.42;;;0.50;;
37411;SDS011;23278;52.110;6.050;2022-08-01T13:48:30;2.72;;;0.60;;
37411;SDS011;23278;52.110;6.050;2022-08-01T13:50:57;1.27;;;0.50;;
37411;SDS011;23278;52.110;6.050;2022-08-01T13:53:23;2.28;;;0.75;;
37411;SDS011;23278;52.110;6.050;2022-08-01T13:55:49;3.45;;;0.90;;
37411;SDS011;23278;52.110;6.050;2022-08-01T13:58:15;2.35;;;0.88;;
37411;SDS011;23278;52.110;6.050;2022-08-01T14:00:41;2.53;;;0.70;;
37411;SDS011;23278;52.110;6.050;2022-08-01T14:03:07;2.53;;;0.68;;
37411;SDS011;23278;52.110;6.050;2022-08-01T14:05:35;3.53;;;0.52;;
37411;SDS011;23278;52.110;6.050;2022-08-01T14:08:01;3.17;;;0.88;;
37411;SDS011;23278;52.110;6.050;2022-08-01T14:10:27;3.25;;;0.70;;
37411;SDS011;23278;52.110;6.050;2022-08-01T14:12:54;0.95;;;0.40;;
37411;SDS011;23278;52.110;6.050;2022-08-01T14:15:21;1.80;;;0.57;;
37411;SDS011;23278;52.110;6.050;2022-08-01T14:17:47;2.40;;;0.63;;
37411;SDS011;23278;52.110;6.050;2022-08-01T14:20:13;3.67;;;0.60;;
37411;SDS011;23278;52.110;6.050;2022-08-01T14:22:39;2.67;;;0.43;;
37411;SDS011;23278;52.110;6.050;2022-08-01T14:25:06;1.27;;;0.35;;
37411;SDS011;23278;52.110;6.050;2022-08-01T14:27:33;3.33;;;0.50;;
37411;SDS011;23278;52.110;6.050;2022-08-01T14:30:01;2.03;;;0.50;;
37411;SDS011;23278;52.110;6.050;2022-08-01T14:32:28;1.48;;;0.38;;
37411;SDS011;23278;52.110;6.050;2022-08-01T14:34:55;1.90;;;0.38;;
37411;SDS011;23278;52.110;6.050;2022-08-01T14:37:21;1.40;;;0.40;;
37411;SDS011;23278;52.110;6.050;2022-08-01T14:39:48;2.30;;;0.50;;
37411;SDS011;23278;52.110;6.050;2022-08-01T14:42:14;1.38;;;0.45;;
37411;SDS011;23278;52.110;6.050;2022-08-01T14:44:40;1.77;;;0.30;;
37411;SDS011;23278;52.110;6.050;2022-08-01T14:47:06;2.05;;;0.50;;
37411;SDS011;23278;52.110;6.050;2022-08-01T14:49:31;2.28;;;0.50;;
37411;SDS011;23278;52.110;6.050;2022-08-01T14:51:57;1.33;;;0.47;;
37411;SDS011;23278;52.110;6.050;2022-08-01T14:54:23;1.52;;;0.38;;
37411;SDS011;23278;52.110;6.050;2022-08-01T14:56:49;1.13;;;0.30;;
37411;SDS011;23278;52.110;6.050;2022-08-01T14:59:17;0.68;;;0.30;;
37411;SDS011;23278;52.110;6.050;2022-08-01T15:01:43;1.13;;;0.40;;
37411;SDS011;23278;52.110;6.050;2022-08-01T15:04:09;0.95;;;0.30;;
37411;SDS011;23278;52.110;6.050;2022-08-01T15:06:34;1.75;;;0.32;;
37411;SDS011;23278;52.110;6.050;2022-08-01T15:09:01;2.25;;;0.60;;
37411;SDS011;23278;52.110;6.050;2022-08-01T15:11:26;1.63;;;0.40;;
37411;SDS011;23278;52.110;6.050;2022-08-01T15:13:52;1.17;;;0.30;;
37411;SDS011;23278;52.110;6.050;2022-08-01T15:16:37;2.00;;;0.40;;
37411;SDS011;23278;52.110;6.050;2022-08-01T15:19:03;1.73;;;0.40;;
37411;SDS011;23278;52.110;6.050;2022-08-01T15:21:29;1.20;;;0.30;;
37411;SDS011;23278;52.110;6.050;2022-08-01T15:23:55;0.80;;;0.30;;
37411;SDS011;23278;52.110;6.050;2022-08-01T15:26:21;0.80;;;0.30;;
37411;SDS011;23278;52.110;6.050;2022-08-01T15:28:47;2.50;;;0.38;;
37411;SDS011;23278;52.110;6.050;2022-08-01T15:31:13;1.38;;;0.30;;
37411;SDS011;23278;52.110;6.050;2022-08-01T15:33:38;1.05;;;0.40;;
37411;SDS011;23278;52.110;6.050;2022-08-01T15:36:04;0.63;;;0.40;;
37411;SDS011;23278;52.110;6.050;2022-08-01T15:38:30;1.67;;;0.40;;